sensor_id;sensor_type;location;lat;lon;timestamp;temperature;humidity
25536;DHT22;13431;51.352;6.412;2022-12-18T00:01:27;-5.60;99.90
25536;DHT22;13431;51.352;6.412;2022-12-18T00:03:55;-5.60;99.90
25536;DHT22;13431;51.352;6.412;2022-12-18T00:06:25;-5.80;99.90
25536;DHT22;13431;51.352;6.412;2022-12-18T00:08:55;-5.90;99.90
25536;DHT22;13431;51.352;6.412;2022-12-18T00:11:25;-5.60;99.90
25536;DHT22;13431;51.352;6.412;2022-12-18T00:13:54;-5.70;99.90
25536;DHT22;13431;51.352;6.412;2022-12-18T00:16:24;-5.60;99.90
25536;DHT22;13431;51.352;6.412;2022-12-18T00:18:56;-5.70;99.90
25536;DHT22;13431;51.352;6.412;2022-12-18T00:21:28;-5.70;99.90
25536;DHT22;13431;51.352;6.412;2022-12-18T00:23:56;-5.60;99.90
25536;DHT22;13431;51.352;6.412;2022-12-18T00:26:26;-5.70;99.90
25536;DHT22;13431;51.352;6.412;2022-12-18T00:29:02;-5.90;99.90
25536;DHT22;13431;51.352;6.412;2022-12-18T00:31:31;-5.70;99.90
25536;DHT22;13431;51.352;6.412;2022-12-18T00:34:01;-5.60;99.90
25536;DHT22;13431;51.352;6.412;2022-12-18T00:36:31;-5.50;99.90
25536;DHT22;13431;51.352;6.412;2022-12-18T00:39:00;-5.40;99.90
25536;DHT22;13431;51.352;6.412;2022-12-18T00:41:28;-5.30;99.90
25536;DHT22;13431;51.352;6.412;2022-12-18T00:44:16;-5.30;99.90
25536;DHT22;13431;51.352;6.412;2022-12-18T00:46:46;-5.20;99.90
25536;DHT22;13431;51.352;6.412;2022-12-18T00:49:15;-5.20;99.90
25536;DHT22;13431;51.352;6.412;2022-12-18T00:51:42;-5.20;99.90
25536;DHT22;13431;51.352;6.412;2022-12-18T00:54:11;-5.20;99.90
25536;DHT22;13431;51.352;6.412;2022-12-18T00:56:39;-5.20;99.90
25536;DHT22;13431;51.352;6.412;2022-12-18T00:59:15;-5.20;99.90
25536;DHT22;13431;51.352;6.412;2022-12-18T01:01:43;-5.50;99.90
25536;DHT22;13431;51.352;6.412;2022-12-18T01:04:11;-5.60;99.90
25536;DHT22;13431;51.352;6.412;2022-12-18T01:06:38;-5.70;99.90
25536;DHT22;13431;51.352;6.412;2022-12-18T01:09:06;-5.80;99.90
25536;DHT22;13431;51.352;6.412;2022-12-18T01:11:36;-5.80;99.90
25536;DHT22;13431;51.352;6.412;2022-12-18T01:14:04;-5.80;99.90
25536;DHT22;13431;51.352;6.412;2022-12-18T01:16:32;-5.50;99.90
25536;DHT22;13431;51.352;6.412;2022-12-18T01:18:59;-5.40;99.90
25536;DHT22;13431;51.352;6.412;2022-12-18T01:21:27;-5.50;99.90
25536;DHT22;13431;51.352;6.412;2022-12-18T01:23:56;-5.50;99.90
25536;DHT22;13431;51.352;6.412;2022-12-18T01:26:24;-5.50;99.90
25536;DHT22;13431;51.352;6.412;2022-12-18T01:28:54;-5.50;99.90
25536;DHT22;13431;51.352;6.412;2022-12-18T01:31:28;-5.50;99.90
25536;DHT22;13431;51.352;6.412;2022-12-18T01:33:56;-5.60;99.90
25536;DHT22;13431;51.352;6.412;2022-12-18T01:36:29;-5.70;99.90
25536;DHT22;13431;51.352;6.412;2022-12-18T01:38:59;-5.60;99.90
25536;DHT22;13431;51.352;6.412;2022-12-18T01:41:29;-5.50;99.90
25536;DHT22;13431;51.352;6.412;2022-12-18T01:47:42;-5.80;99.90
25536;DHT22;13431;51.352;6.412;2022-12-18T01:50:17;-5.70;99.90
25536;DHT22;13431;51.352;6.412;2022-12-18T01:52:48;-5.70;99.90
25536;DHT22;13431;51.352;6.412;2022-12-18T01:55:18;-5.70;99.90
25536;DHT22;13431;51.352;6.412;2022-12-18T01:57:47;-5.70;99.90
25536;DHT22;13431;51.352;6.412;2022-12-18T02:00:18;-5.70;99.90
25536;DHT22;13431;51.352;6.412;2022-12-18T02:02:47;-5.60;99.90
25536;DHT22;13431;51.352;6.412;2022-12-18T02:10:39;-5.30;99.90
25536;DHT22;13431;51.352;6.412;2022-12-18T02:16:21;-5.50;99.90
25536;DHT22;13431;51.352;6.412;2022-12-18T02:18:59;-5.60;99.90
25536;DHT22;13431;51.352;6.412;2022-12-18T02:21:48;-5.60;99.90
25536;DHT22;13431;51.352;6.412;2022-12-18T02:27:00;-5.60;99.90
25536;DHT22;13431;51.352;6.412;2022-12-18T02:29:43;-5.60;99.90
25536;DHT22;13431;51.352;6.412;2022-12-18T02:32:17;-5.70;99.90
25536;DHT22;13431;51.352;6.412;2022-12-18T02:34:46;-5.40;99.90
25536;DHT22;13431;51.352;6.412;2022-12-18T02:37:18;-5.40;99.90
25536;DHT22;13431;51.352;6.412;2022-12-18T02:39:49;-5.40;99.90
25536;DHT22;13431;51.352;6.412;2022-12-18T02:42:17;-5.40;99.90
25536;DHT22;13431;51.352;6.412;2022-12-18T02:44:50;-5.50;99.90
25536;DHT22;13431;51.352;6.412;2022-12-18T02:47:27;-5.70;99.90
25536;DHT22;13431;51.352;6.412;2022-12-18T03:04:17;-5.70;99.90
25536;DHT22;13431;51.352;6.412;2022-12-18T03:06:50;-5.60;99.90
25536;DHT22;13431;51.352;6.412;2022-12-18T03:09:28;-5.70;99.90
25536;DHT22;13431;51.352;6.412;2022-12-18T03:12:05;-5.80;99.90
25536;DHT22;13431;51.352;6.412;2022-12-18T03:17:33;-5.60;99.90
25536;DHT22;13431;51.352;6.412;2022-12-18T03:20:14;-5.70;99.90
25536;DHT22;13431;51.352;6.412;2022-12-18T03:22:43;-5.60;99.90
25536;DHT22;13431;51.352;6.412;2022-12-18T03:25:17;-5.70;99.90
25536;DHT22;13431;51.352;6.412;2022-12-18T03:27:51;-5.70;99.90
25536;DHT22;13431;51.352;6.412;2022-12-18T03:30:21;-5.80;99.90
25536;DHT22;13431;51.352;6.412;2022-12-18T03:33:12;-5.70;99.90
25536;DHT22;13431;51.352;6.412;2022-12-18T03:35:44;-5.70;99.90
25536;DHT22;13431;51.352;6.412;2022-12-18T03:38:12;-5.80;99.90
25536;DHT22;13431;51.352;6.412;2022-12-18T03:47:06;-5.80;99.90
25536;DHT22;13431;51.352;6.412;2022-12-18T03:49:45;-5.70;99.90
25536;DHT22;13431;51.352;6.412;2022-12-18T03:52:37;-5.60;99.90
25536;DHT22;13431;51.352;6.412;2022-12-18T03:55:08;-5.70;99.90
25536;DHT22;13431;51.352;6.412;2022-12-18T03:57:38;-5.60;99.90
25536;DHT22;13431;51.352;6.412;2022-12-18T04:00:10;-5.60;99.90
25536;DHT22;13431;51.352;6.412;2022-12-18T04:02:54;-5.60;99.90
25536;DHT22;13431;51.352;6.412;2022-12-18T04:05:30;-5.60;99.90
25536;DHT22;13431;51.352;6.412;2022-12-18T04:08:01;-5.50;99.90
25536;DHT22;13431;51.352;6.412;2022-12-18T04:10:32;-5.60;99.90
25536;DHT22;13431;51.352;6.412;2022-12-18T04:13:00;-5.80;99.90
25536;DHT22;13431;51.352;6.412;2022-12-18T04:15:28;-5.50;99.90
25536;DHT22;13431;51.352;6.412;2022-12-18T04:17:58;-5.50;99.90
25536;DHT22;13431;51.352;6.412;2022-12-18T04:20:32;-5.40;99.90
25536;DHT22;13431;51.352;6.412;2022-12-18T04:22:59;-5.30;99.90
25536;DHT22;13431;51.352;6.412;2022-12-18T04:25:27;-5.50;99.90
25536;DHT22;13431;51.352;6.412;2022-12-18T04:28:07;-5.50;99.90
25536;DHT22;13431;51.352;6.412;2022-12-18T04:30:35;-5.40;99.90
25536;DHT22;13431;51.352;6.412;2022-12-18T04:33:03;-5.30;99.90
25536;DHT22;13431;51.352;6.412;2022-12-18T04:35:31;-5.40;99.90
25536;DHT22;13431;51.352;6.412;2022-12-18T04:37:59;-5.50;99.90
25536;DHT22;13431;51.352;6.412;2022-12-18T04:40:27;-5.30;99.90
25536;DHT22;13431;51.352;6.412;2022-12-18T04:42:54;-5.40;99.90
25536;DHT22;13431;51.352;6.412;2022-12-18T04:45:22;-5.40;99.90
25536;DHT22;13431;51.352;6.412;2022-12-18T04:47:49;-5.30;99.90
25536;DHT22;13431;51.352;6.412;2022-12-18T04:50:17;-5.30;99.90
25536;DHT22;13431;51.352;6.412;2022-12-18T04:52:45;-5.30;99.90
25536;DHT22;13431;51.352;6.412;2022-12-18T04:55:13;-5.30;99.90
25536;DHT22;13431;51.352;6.412;2022-12-18T04:57:40;-5.30;99.90
25536;DHT22;13431;51.352;6.412;2022-12-18T05:00:08;-5.30;99.90
25536;DHT22;13431;51.352;6.412;2022-12-18T05:02:35;-5.30;99.90
25536;DHT22;13431;51.352;6.412;2022-12-18T05:05:03;-5.50;99.90
25536;DHT22;13431;51.352;6.412;2022-12-18T05:07:30;-5.50;99.90
25536;DHT22;13431;51.352;6.412;2022-12-18T05:09:58;-5.30;99.90
25536;DHT22;13431;51.352;6.412;2022-12-18T05:12:25;-5.10;99.90
25536;DHT22;13431;51.352;6.412;2022-12-18T05:14:53;-5.20;99.90
25536;DHT22;13431;51.352;6.412;2022-12-18T05:17:20;-5.10;99.90
25536;DHT22;13431;51.352;6.412;2022-12-18T05:19:47;-5.20;99.90
25536;DHT22;13431;51.352;6.412;2022-12-18T05:22:15;-5.00;99.90
25536;DHT22;13431;51.352;6.412;2022-12-18T05:24:43;-5.00;99.90
25536;DHT22;13431;51.352;6.412;2022-12-18T05:27:10;-5.00;99.90
25536;DHT22;13431;51.352;6.412;2022-12-18T05:29:37;-5.00;99.90
25536;DHT22;13431;51.352;6.412;2022-12-18T05:32:05;-4.90;99.90
25536;DHT22;13431;51.352;6.412;2022-12-18T05:34:32;-5.00;99.90
25536;DHT22;13431;51.352;6.412;2022-12-18T05:37:00;-4.90;99.90
25536;DHT22;13431;51.352;6.412;2022-12-18T05:39:28;-5.00;99.90
25536;DHT22;13431;51.352;6.412;2022-12-18T05:41:55;-4.90;99.90
25536;DHT22;13431;51.352;6.412;2022-12-18T05:44:23;-5.10;99.90
25536;DHT22;13431;51.352;6.412;2022-12-18T05:46:50;-5.30;99.90
25536;DHT22;13431;51.352;6.412;2022-12-18T05:49:17;-5.20;99.90
25536;DHT22;13431;51.352;6.412;2022-12-18T05:51:45;-5.30;99.90
25536;DHT22;13431;51.352;6.412;2022-12-18T05:54:13;-5.20;99.90
25536;DHT22;13431;51.352;6.412;2022-12-18T05:56:40;-5.10;99.90
25536;DHT22;13431;51.352;6.412;2022-12-18T05:59:14;-5.10;99.90
25536;DHT22;13431;51.352;6.412;2022-12-18T06:01:41;-5.10;99.90
25536;DHT22;13431;51.352;6.412;2022-12-18T06:04:10;-5.10;99.90
25536;DHT22;13431;51.352;6.412;2022-12-18T06:06:38;-5.10;99.90
25536;DHT22;13431;51.352;6.412;2022-12-18T06:09:05;-5.10;99.90
25536;DHT22;13431;51.352;6.412;2022-12-18T06:11:36;-5.20;99.90
25536;DHT22;13431;51.352;6.412;2022-12-18T06:14:05;-5.30;99.90
25536;DHT22;13431;51.352;6.412;2022-12-18T06:16:34;-5.40;99.90
25536;DHT22;13431;51.352;6.412;2022-12-18T06:19:04;-5.30;99.90
25536;DHT22;13431;51.352;6.412;2022-12-18T06:21:32;-5.20;99.90
25536;DHT22;13431;51.352;6.412;2022-12-18T06:24:01;-5.30;99.90
25536;DHT22;13431;51.352;6.412;2022-12-18T06:26:28;-5.30;99.90
25536;DHT22;13431;51.352;6.412;2022-12-18T06:28:55;-5.50;99.90
25536;DHT22;13431;51.352;6.412;2022-12-18T06:31:24;-5.50;99.90
25536;DHT22;13431;51.352;6.412;2022-12-18T06:33:51;-5.60;99.90
25536;DHT22;13431;51.352;6.412;2022-12-18T06:36:19;-5.50;99.90
25536;DHT22;13431;51.352;6.412;2022-12-18T06:38:47;-5.30;99.90
25536;DHT22;13431;51.352;6.412;2022-12-18T06:41:16;-5.30;99.90
25536;DHT22;13431;51.352;6.412;2022-12-18T06:43:44;-5.10;99.90
25536;DHT22;13431;51.352;6.412;2022-12-18T06:46:12;-5.10;99.90
25536;DHT22;13431;51.352;6.412;2022-12-18T06:48:39;-5.10;99.90
25536;DHT22;13431;51.352;6.412;2022-12-18T06:51:07;-5.00;99.90
25536;DHT22;13431;51.352;6.412;2022-12-18T06:53:34;-5.00;99.90
25536;DHT22;13431;51.352;6.412;2022-12-18T06:56:03;-4.90;99.90
25536;DHT22;13431;51.352;6.412;2022-12-18T06:58:37;-4.90;99.90
25536;DHT22;13431;51.352;6.412;2022-12-18T07:01:06;-4.80;99.90
25536;DHT22;13431;51.352;6.412;2022-12-18T07:03:34;-5.00;99.90
25536;DHT22;13431;51.352;6.412;2022-12-18T07:06:02;-4.80;99.90
25536;DHT22;13431;51.352;6.412;2022-12-18T07:08:30;-4.80;99.90
25536;DHT22;13431;51.352;6.412;2022-12-18T07:10:58;-4.80;99.90
25536;DHT22;13431;51.352;6.412;2022-12-18T07:13:25;-4.80;99.90
25536;DHT22;13431;51.352;6.412;2022-12-18T07:15:53;-4.80;99.90
25536;DHT22;13431;51.352;6.412;2022-12-18T07:18:21;-4.80;99.90
25536;DHT22;13431;51.352;6.412;2022-12-18T07:20:48;-4.50;99.90
25536;DHT22;13431;51.352;6.412;2022-12-18T07:23:15;-4.50;99.90
25536;DHT22;13431;51.352;6.412;2022-12-18T07:25:43;-4.30;99.90
25536;DHT22;13431;51.352;6.412;2022-12-18T07:28:10;-4.30;99.90
25536;DHT22;13431;51.352;6.412;2022-12-18T07:30:43;-4.10;99.90
25536;DHT22;13431;51.352;6.412;2022-12-18T07:33:11;-4.20;99.90
25536;DHT22;13431;51.352;6.412;2022-12-18T07:35:38;-4.20;99.90
25536;DHT22;13431;51.352;6.412;2022-12-18T07:38:05;-4.20;99.90
25536;DHT22;13431;51.352;6.412;2022-12-18T07:40:33;-4.10;99.90
25536;DHT22;13431;51.352;6.412;2022-12-18T07:43:00;-4.20;99.90
25536;DHT22;13431;51.352;6.412;2022-12-18T07:45:30;-4.20;99.90
25536;DHT22;13431;51.352;6.412;2022-12-18T07:47:58;-4.10;99.90
25536;DHT22;13431;51.352;6.412;2022-12-18T07:50:25;-4.10;99.90
25536;DHT22;13431;51.352;6.412;2022-12-18T07:52:52;-4.20;99.90
25536;DHT22;13431;51.352;6.412;2022-12-18T07:55:20;-4.20;99.90
25536;DHT22;13431;51.352;6.412;2022-12-18T07:57:47;-4.10;99.90
25536;DHT22;13431;51.352;6.412;2022-12-18T08:00:19;-4.30;99.90
25536;DHT22;13431;51.352;6.412;2022-12-18T08:02:47;-4.20;99.90
25536;DHT22;13431;51.352;6.412;2022-12-18T08:05:15;-4.20;99.90
25536;DHT22;13431;51.352;6.412;2022-12-18T08:07:42;-3.90;99.90
25536;DHT22;13431;51.352;6.412;2022-12-18T08:10:09;-3.80;99.90
25536;DHT22;13431;51.352;6.412;2022-12-18T08:12:37;-3.80;99.90
25536;DHT22;13431;51.352;6.412;2022-12-18T08:15:04;-3.50;99.90
25536;DHT22;13431;51.352;6.412;2022-12-18T08:17:32;-2.90;99.90
25536;DHT22;13431;51.352;6.412;2022-12-18T08:20:00;-2.40;99.90
25536;DHT22;13431;51.352;6.412;2022-12-18T08:22:27;-2.10;99.90
25536;DHT22;13431;51.352;6.412;2022-12-18T08:24:54;-2.20;99.90
25536;DHT22;13431;51.352;6.412;2022-12-18T08:27:22;-2.20;99.90
25536;DHT22;13431;51.352;6.412;2022-12-18T08:29:57;-2.30;99.90
25536;DHT22;13431;51.352;6.412;2022-12-18T08:32:25;-2.40;99.90
25536;DHT22;13431;51.352;6.412;2022-12-18T08:34:53;-2.40;99.90
25536;DHT22;13431;51.352;6.412;2022-12-18T08:37:20;-2.20;99.90
25536;DHT22;13431;51.352;6.412;2022-12-18T08:39:48;-2.30;99.90
25536;DHT22;13431;51.352;6.412;2022-12-18T08:42:15;-2.40;99.90
25536;DHT22;13431;51.352;6.412;2022-12-18T08:45:02;-2.30;99.90
25536;DHT22;13431;51.352;6.412;2022-12-18T08:47:30;-2.00;99.90
25536;DHT22;13431;51.352;6.412;2022-12-18T08:49:57;-2.00;99.90
25536;DHT22;13431;51.352;6.412;2022-12-18T08:52:24;-1.90;99.90
25536;DHT22;13431;51.352;6.412;2022-12-18T08:54:52;-1.60;99.90
25536;DHT22;13431;51.352;6.412;2022-12-18T08:57:19;-1.50;99.90
25536;DHT22;13431;51.352;6.412;2022-12-18T08:59:46;-1.30;99.90
25536;DHT22;13431;51.352;6.412;2022-12-18T09:02:13;-1.50;99.90
25536;DHT22;13431;51.352;6.412;2022-12-18T09:04:41;-1.50;99.90
25536;DHT22;13431;51.352;6.412;2022-12-18T09:07:08;-1.60;99.90
25536;DHT22;13431;51.352;6.412;2022-12-18T09:09:36;-1.60;99.90
25536;DHT22;13431;51.352;6.412;2022-12-18T09:12:03;-1.70;99.90
25536;DHT22;13431;51.352;6.412;2022-12-18T09:14:31;-1.80;99.90
25536;DHT22;13431;51.352;6.412;2022-12-18T09:16:58;-1.80;99.90
25536;DHT22;13431;51.352;6.412;2022-12-18T09:19:25;-1.50;99.90
25536;DHT22;13431;51.352;6.412;2022-12-18T09:21:53;-1.20;99.90
25536;DHT22;13431;51.352;6.412;2022-12-18T09:24:23;-1.00;99.90
25536;DHT22;13431;51.352;6.412;2022-12-18T09:26:53;-0.80;99.90
25536;DHT22;13431;51.352;6.412;2022-12-18T09:29:24;-0.40;99.90
25536;DHT22;13431;51.352;6.412;2022-12-18T09:31:51;-0.50;99.90
25536;DHT22;13431;51.352;6.412;2022-12-18T09:34:18;-0.50;99.90
25536;DHT22;13431;51.352;6.412;2022-12-18T09:36:48;-0.60;99.90
25536;DHT22;13431;51.352;6.412;2022-12-18T09:39:16;-0.40;99.90
25536;DHT22;13431;51.352;6.412;2022-12-18T09:41:52;-0.50;99.90
25536;DHT22;13431;51.352;6.412;2022-12-18T09:49:43;-0.40;99.90
25536;DHT22;13431;51.352;6.412;2022-12-18T09:52:37;-0.40;99.90
25536;DHT22;13431;51.352;6.412;2022-12-18T09:55:30;-0.40;99.90
25536;DHT22;13431;51.352;6.412;2022-12-18T09:58:14;-0.50;99.90
25536;DHT22;13431;51.352;6.412;2022-12-18T10:00:43;-0.50;99.90
25536;DHT22;13431;51.352;6.412;2022-12-18T10:03:13;-0.60;99.90
25536;DHT22;13431;51.352;6.412;2022-12-18T10:05:53;-0.50;99.90
25536;DHT22;13431;51.352;6.412;2022-12-18T10:11:24;-0.30;99.90
25536;DHT22;13431;51.352;6.412;2022-12-18T10:14:09;-0.40;99.90
25536;DHT22;13431;51.352;6.412;2022-12-18T10:19:34;-0.10;99.90
25536;DHT22;13431;51.352;6.412;2022-12-18T10:25:19;0.10;99.90
25536;DHT22;13431;51.352;6.412;2022-12-18T10:27:50;0.00;99.90
25536;DHT22;13431;51.352;6.412;2022-12-18T10:30:22;0.10;99.90
25536;DHT22;13431;51.352;6.412;2022-12-18T10:32:50;0.20;99.90
25536;DHT22;13431;51.352;6.412;2022-12-18T10:35:22;0.40;99.90
25536;DHT22;13431;51.352;6.412;2022-12-18T10:38:04;0.50;99.90
25536;DHT22;13431;51.352;6.412;2022-12-18T10:40:32;0.70;99.90
25536;DHT22;13431;51.352;6.412;2022-12-18T10:45:31;0.30;99.90
25536;DHT22;13431;51.352;6.412;2022-12-18T10:47:58;0.40;99.90
25536;DHT22;13431;51.352;6.412;2022-12-18T10:50:31;0.30;99.90
25536;DHT22;13431;51.352;6.412;2022-12-18T10:53:25;0.40;99.90
25536;DHT22;13431;51.352;6.412;2022-12-18T10:55:56;0.40;99.90
25536;DHT22;13431;51.352;6.412;2022-12-18T10:58:29;0.20;99.90
25536;DHT22;13431;51.352;6.412;2022-12-18T11:01:17;0.00;99.90
25536;DHT22;13431;51.352;6.412;2022-12-18T11:03:47;0.10;99.90
25536;DHT22;13431;51.352;6.412;2022-12-18T11:06:32;0.10;99.90
25536;DHT22;13431;51.352;6.412;2022-12-18T11:09:06;0.10;99.90
25536;DHT22;13431;51.352;6.412;2022-12-18T11:11:52;0.10;99.90
25536;DHT22;13431;51.352;6.412;2022-12-18T11:14:45;0.20;99.90
25536;DHT22;13431;51.352;6.412;2022-12-18T11:17:22;0.20;99.90
25536;DHT22;13431;51.352;6.412;2022-12-18T11:20:04;0.20;99.90
25536;DHT22;13431;51.352;6.412;2022-12-18T11:22:36;0.20;99.90
25536;DHT22;13431;51.352;6.412;2022-12-18T11:28:05;0.40;99.90
25536;DHT22;13431;51.352;6.412;2022-12-18T11:31:18;0.30;99.90
25536;DHT22;13431;51.352;6.412;2022-12-18T11:34:17;0.30;99.90
25536;DHT22;13431;51.352;6.412;2022-12-18T11:36:58;0.30;99.90
25536;DHT22;13431;51.352;6.412;2022-12-18T11:39:35;0.20;99.90
25536;DHT22;13431;51.352;6.412;2022-12-18T11:45:23;0.20;99.90
25536;DHT22;13431;51.352;6.412;2022-12-18T11:48:09;0.30;99.90
25536;DHT22;13431;51.352;6.412;2022-12-18T11:53:12;0.20;99.90
25536;DHT22;13431;51.352;6.412;2022-12-18T11:55:57;0.20;99.90
25536;DHT22;13431;51.352;6.412;2022-12-18T12:12:53;0.30;99.90
25536;DHT22;13431;51.352;6.412;2022-12-18T12:15:30;0.30;99.90
25536;DHT22;13431;51.352;6.412;2022-12-18T12:18:01;0.30;99.90
25536;DHT22;13431;51.352;6.412;2022-12-18T12:26:38;0.30;99.90
25536;DHT22;13431;51.352;6.412;2022-12-18T12:29:26;0.30;99.90
25536;DHT22;13431;51.352;6.412;2022-12-18T12:32:11;0.30;99.90
25536;DHT22;13431;51.352;6.412;2022-12-18T12:37:44;0.30;99.90
25536;DHT22;13431;51.352;6.412;2022-12-18T12:40:22;0.30;99.90
25536;DHT22;13431;51.352;6.412;2022-12-18T12:43:45;0.30;99.90
25536;DHT22;13431;51.352;6.412;2022-12-18T12:46:19;0.30;99.90
25536;DHT22;13431;51.352;6.412;2022-12-18T12:49:02;0.30;99.90
25536;DHT22;13431;51.352;6.412;2022-12-18T12:51:37;0.30;99.90
25536;DHT22;13431;51.352;6.412;2022-12-18T12:54:15;0.30;99.90
25536;DHT22;13431;51.352;6.412;2022-12-18T12:57:16;0.30;99.90
25536;DHT22;13431;51.352;6.412;2022-12-18T12:59:55;0.40;99.90
25536;DHT22;13431;51.352;6.412;2022-12-18T13:02:44;0.40;99.90
25536;DHT22;13431;51.352;6.412;2022-12-18T13:07:59;0.40;99.90
25536;DHT22;13431;51.352;6.412;2022-12-18T13:10:37;0.40;99.90
25536;DHT22;13431;51.352;6.412;2022-12-18T13:13:10;0.40;99.90
25536;DHT22;13431;51.352;6.412;2022-12-18T13:15:48;0.40;99.90
25536;DHT22;13431;51.352;6.412;2022-12-18T13:18:30;0.40;99.90
25536;DHT22;13431;51.352;6.412;2022-12-18T13:23:33;0.30;99.90
25536;DHT22;13431;51.352;6.412;2022-12-18T13:33:45;0.30;99.90
25536;DHT22;13431;51.352;6.412;2022-12-18T13:36:33;0.30;99.90
25536;DHT22;13431;51.352;6.412;2022-12-18T13:41:37;0.20;99.90
25536;DHT22;13431;51.352;6.412;2022-12-18T13:47:32;0.20;99.90
25536;DHT22;13431;51.352;6.412;2022-12-18T13:50:01;0.10;99.90
25536;DHT22;13431;51.352;6.412;2022-12-18T13:52:37;0.10;99.90
25536;DHT22;13431;51.352;6.412;2022-12-18T13:55:13;0.10;99.90
25536;DHT22;13431;51.352;6.412;2022-12-18T13:57:42;0.10;99.90
25536;DHT22;13431;51.352;6.412;2022-12-18T14:02:51;0.00;99.90
25536;DHT22;13431;51.352;6.412;2022-12-18T14:05:27;0.00;99.90
25536;DHT22;13431;51.352;6.412;2022-12-18T14:08:06;0.00;99.90
25536;DHT22;13431;51.352;6.412;2022-12-18T14:10:35;0.00;99.90
25536;DHT22;13431;51.352;6.412;2022-12-18T14:13:20;-0.10;99.90
25536;DHT22;13431;51.352;6.412;2022-12-18T14:15:49;-0.10;99.90
25536;DHT22;13431;51.352;6.412;2022-12-18T14:18:34;-0.10;99.90
25536;DHT22;13431;51.352;6.412;2022-12-18T14:21:04;-0.10;99.90
25536;DHT22;13431;51.352;6.412;2022-12-18T14:23:37;-0.10;99.90
25536;DHT22;13431;51.352;6.412;2022-12-18T14:29:40;-0.10;99.90
25536;DHT22;13431;51.352;6.412;2022-12-18T14:31:42;-0.10;99.90
25536;DHT22;13431;51.352;6.412;2022-12-18T14:34:18;-0.10;99.90
25536;DHT22;13431;51.352;6.412;2022-12-18T14:36:53;-0.10;99.90
25536;DHT22;13431;51.352;6.412;2022-12-18T14:39:22;-0.10;99.90
25536;DHT22;13431;51.352;6.412;2022-12-18T14:41:52;-0.20;99.90
25536;DHT22;13431;51.352;6.412;2022-12-18T14:44:20;-0.10;99.90
25536;DHT22;13431;51.352;6.412;2022-12-18T14:46:50;-0.20;99.90
25536;DHT22;13431;51.352;6.412;2022-12-18T14:49:30;-0.20;99.90
25536;DHT22;13431;51.352;6.412;2022-12-18T14:52:03;-0.20;99.90
25536;DHT22;13431;51.352;6.412;2022-12-18T14:54:34;-0.20;99.90
25536;DHT22;13431;51.352;6.412;2022-12-18T14:57:03;-0.20;99.90
25536;DHT22;13431;51.352;6.412;2022-12-18T14:59:32;-0.20;99.90
25536;DHT22;13431;51.352;6.412;2022-12-18T15:02:22;-0.20;99.90
25536;DHT22;13431;51.352;6.412;2022-12-18T15:07:49;-0.30;99.90
25536;DHT22;13431;51.352;6.412;2022-12-18T15:10:18;-0.30;99.90
25536;DHT22;13431;51.352;6.412;2022-12-18T15:12:48;-0.30;99.90
25536;DHT22;13431;51.352;6.412;2022-12-18T15:18:16;-0.40;99.90
25536;DHT22;13431;51.352;6.412;2022-12-18T15:21:07;-0.40;99.90
25536;DHT22;13431;51.352;6.412;2022-12-18T15:26:13;-0.50;99.90
25536;DHT22;13431;51.352;6.412;2022-12-18T15:28:51;-0.40;99.90
25536;DHT22;13431;51.352;6.412;2022-12-18T15:36:23;-0.60;99.90
25536;DHT22;13431;51.352;6.412;2022-12-18T15:38:54;-0.60;99.90
25536;DHT22;13431;51.352;6.412;2022-12-18T15:41:33;-0.60;99.90
25536;DHT22;13431;51.352;6.412;2022-12-18T15:44:03;-0.70;99.90
25536;DHT22;13431;51.352;6.412;2022-12-18T15:46:31;-0.70;99.90
25536;DHT22;13431;51.352;6.412;2022-12-18T15:48:59;-0.70;99.90
25536;DHT22;13431;51.352;6.412;2022-12-18T15:51:35;-0.70;99.90
25536;DHT22;13431;51.352;6.412;2022-12-18T15:54:06;-0.70;99.90
25536;DHT22;13431;51.352;6.412;2022-12-18T15:56:45;-0.70;99.90
25536;DHT22;13431;51.352;6.412;2022-12-18T15:59:45;-0.70;99.90
25536;DHT22;13431;51.352;6.412;2022-12-18T16:02:16;-0.70;99.90
25536;DHT22;13431;51.352;6.412;2022-12-18T16:04:44;-0.70;99.90
25536;DHT22;13431;51.352;6.412;2022-12-18T16:07:13;-0.80;99.90
25536;DHT22;13431;51.352;6.412;2022-12-18T16:09:51;-0.80;99.90
25536;DHT22;13431;51.352;6.412;2022-12-18T16:12:22;-0.80;99.90
25536;DHT22;13431;51.352;6.412;2022-12-18T16:14:54;-0.80;99.90
25536;DHT22;13431;51.352;6.412;2022-12-18T16:17:21;-0.80;99.90
25536;DHT22;13431;51.352;6.412;2022-12-18T16:19:49;-0.80;99.90
25536;DHT22;13431;51.352;6.412;2022-12-18T16:22:21;-0.80;99.90
25536;DHT22;13431;51.352;6.412;2022-12-18T16:24:50;-0.80;99.90
25536;DHT22;13431;51.352;6.412;2022-12-18T16:27:23;-0.80;99.90
25536;DHT22;13431;51.352;6.412;2022-12-18T16:29:54;-0.80;99.90
25536;DHT22;13431;51.352;6.412;2022-12-18T16:32:22;-0.80;99.90
25536;DHT22;13431;51.352;6.412;2022-12-18T16:34:50;-0.80;99.90
25536;DHT22;13431;51.352;6.412;2022-12-18T16:37:21;-0.90;99.90
25536;DHT22;13431;51.352;6.412;2022-12-18T16:39:49;-0.90;99.90
25536;DHT22;13431;51.352;6.412;2022-12-18T16:42:18;-0.80;99.90
25536;DHT22;13431;51.352;6.412;2022-12-18T16:44:48;-0.80;99.90
25536;DHT22;13431;51.352;6.412;2022-12-18T16:47:20;-0.80;99.90
25536;DHT22;13431;51.352;6.412;2022-12-18T16:49:47;-0.80;99.90
25536;DHT22;13431;51.352;6.412;2022-12-18T16:52:19;-0.80;99.90
25536;DHT22;13431;51.352;6.412;2022-12-18T16:54:47;-0.80;99.90
25536;DHT22;13431;51.352;6.412;2022-12-18T16:57:17;-0.90;99.90
25536;DHT22;13431;51.352;6.412;2022-12-18T16:59:47;-0.90;99.90
25536;DHT22;13431;51.352;6.412;2022-12-18T17:02:16;-0.90;99.90
25536;DHT22;13431;51.352;6.412;2022-12-18T17:04:54;-0.80;99.90
25536;DHT22;13431;51.352;6.412;2022-12-18T17:07:23;-0.80;99.90
25536;DHT22;13431;51.352;6.412;2022-12-18T17:09:54;-0.80;99.90
25536;DHT22;13431;51.352;6.412;2022-12-18T17:12:22;-0.80;99.90
25536;DHT22;13431;51.352;6.412;2022-12-18T17:14:53;-0.80;99.90
25536;DHT22;13431;51.352;6.412;2022-12-18T17:17:20;-0.80;99.90
25536;DHT22;13431;51.352;6.412;2022-12-18T17:19:57;-0.90;99.90
25536;DHT22;13431;51.352;6.412;2022-12-18T17:22:25;-0.80;99.90
25536;DHT22;13431;51.352;6.412;2022-12-18T17:24:52;-0.80;99.90
25536;DHT22;13431;51.352;6.412;2022-12-18T17:27:20;-0.80;99.90
25536;DHT22;13431;51.352;6.412;2022-12-18T17:29:50;-0.80;99.90
25536;DHT22;13431;51.352;6.412;2022-12-18T17:32:18;-0.80;99.90
25536;DHT22;13431;51.352;6.412;2022-12-18T17:34:45;-0.80;99.90
25536;DHT22;13431;51.352;6.412;2022-12-18T17:37:13;-0.80;99.90
25536;DHT22;13431;51.352;6.412;2022-12-18T17:39:41;-0.80;99.90
25536;DHT22;13431;51.352;6.412;2022-12-18T17:42:09;-0.80;99.90
25536;DHT22;13431;51.352;6.412;2022-12-18T17:44:42;-0.80;99.90
25536;DHT22;13431;51.352;6.412;2022-12-18T17:47:11;-0.80;99.90
25536;DHT22;13431;51.352;6.412;2022-12-18T17:49:39;-0.80;99.90
25536;DHT22;13431;51.352;6.412;2022-12-18T17:52:07;-0.80;99.90
25536;DHT22;13431;51.352;6.412;2022-12-18T17:54:35;-0.70;99.90
25536;DHT22;13431;51.352;6.412;2022-12-18T17:57:05;-0.70;99.90
25536;DHT22;13431;51.352;6.412;2022-12-18T17:59:33;-0.70;99.90
25536;DHT22;13431;51.352;6.412;2022-12-18T18:02:01;-0.70;99.90
25536;DHT22;13431;51.352;6.412;2022-12-18T18:04:29;-0.70;99.90
25536;DHT22;13431;51.352;6.412;2022-12-18T18:06:56;-0.60;99.90